Terminal Aerodrome Forecast
Issued by NWS

Home | Current Version | Previous Version | Text Only | Print | Product List | Glossary Off
Versions: 1 2 3 4 5 6 7 8 9 10 11 12 13 14 15 16 17 18 19 20 21

707
FTUS43 KOAX 271421 AAC
TAFCDR
TAF AMD
KCDR 271421Z 2714/2812 00000KT 3SM BR BKN001
     FM271500 21007KT P6SM SCT200
     FM280300 12007KT P6SM -SHRA OVC050
     FM280900 12007KT 6SM -RA OVC015=

USA.gov is the U.S. government's official web portal to all federal, state and local government web resources and services.